Time;durP1;ratioP1;P1;durP2;ratioP2;P2;SDS_P1;SDS_P2;PMS_P1;PMS_P2;Temp;Humidity;BMP_temperature;BMP_pressure;BME280_temperature;BME280_humidity;BME280_pressure;Samples;Min_cycle;Max_cycle;Signal;HPM_P1;HPM_P2
2022/07/18 00:00:35;;;;;;;6.15;5.25;;;;;;;;;;10174399;28;20064;-60
2022/07/18 00:05:29;;;;;;;9.10;5.45;;;;;;;;;;10193516;28;20535;-60
2022/07/18 00:10:23;;;;;;;7.70;4.75;;;;;;;;;;10172665;28;20428;-60
2022/07/18 00:15:17;;;;;;;4.88;4.28;;;;;;;;;;10182466;28;20120;-59
2022/07/18 00:20:12;;;;;;;6.65;5.72;;;;;;;;;;10189558;28;20480;-60
2022/07/18 00:25:07;;;;;;;8.45;5.35;;;;;;;;;;10171703;28;20051;-59
2022/07/18 00:30:00;;;;;;;8.10;5.22;;;;;;;;;;10177038;28;20048;-61
2022/07/18 00:34:55;;;;;;;16.42;6.78;;;;;;;;;;10188766;28;20466;-61
2022/07/18 00:39:49;;;;;;;10.15;6.93;;;;;;;;;;10177301;28;20143;-60
2022/07/18 00:44:43;;;;;;;11.70;6.95;;;;;;;;;;10173098;28;20094;-60
2022/07/18 00:49:37;;;;;;;10.50;7.40;;;;;;;;;;10176694;28;20118;-60
2022/07/18 00:54:32;;;;;;;8.13;6.82;;;;;;;;;;10179061;28;20051;-60
2022/07/18 01:01:42;;;;;;;10.05;7.05;;;;;;;;;;10190616;28;20491;-60
2022/07/18 01:04:41;;;;;;;16.80;6.65;;;;;;;;;;10182627;28;20130;-60
2022/07/18 01:09:36;;;;;;;11.55;6.80;;;;;;;;;;10167965;28;20411;-60
2022/07/18 01:14:31;;;;;;;7.80;6.30;;;;;;;;;;10179032;28;20492;-60
2022/07/18 01:19:25;;;;;;;8.40;7.55;;;;;;;;;;10177753;28;20075;-61
2022/07/18 01:24:20;;;;;;;11.20;7.65;;;;;;;;;;10178113;28;20048;-61
2022/07/18 01:29:15;;;;;;;14.00;7.07;;;;;;;;;;10177699;28;20120;-61
2022/07/18 01:34:08;;;;;;;9.15;7.20;;;;;;;;;;10165065;28;20052;-61
2022/07/18 01:39:02;;;;;;;9.20;7.22;;;;;;;;;;10167127;28;20036;-61
2022/07/18 01:43:56;;;;;;;8.60;7.80;;;;;;;;;;10176775;28;20056;-61
2022/07/18 01:48:51;;;;;;;13.55;7.13;;;;;;;;;;10187579;28;20040;-60
2022/07/18 01:54:01;;;;;;;9.55;7.65;;;;;;;;;;10186043;28;20044;-61
2022/07/18 01:59:10;;;;;;;10.93;6.90;;;;;;;;;;10182428;28;20043;-61
2022/07/18 02:04:05;;;;;;;10.32;7.57;;;;;;;;;;10183316;28;20047;-61
2022/07/18 02:08:59;;;;;;;10.35;7.18;;;;;;;;;;10178562;28;20048;-61
2022/07/18 02:13:53;;;;;;;8.32;7.43;;;;;;;;;;10184286;28;20032;-61
2022/07/18 02:18:47;;;;;;;8.07;6.57;;;;;;;;;;10181952;28;20098;-61
2022/07/18 02:23:42;;;;;;;7.75;6.72;;;;;;;;;;10185983;28;20138;-61
2022/07/18 02:28:36;;;;;;;7.22;6.53;;;;;;;;;;10186021;28;20047;-61
2022/07/18 02:33:31;;;;;;;12.35;7.47;;;;;;;;;;10183728;28;20032;-61
2022/07/18 02:38:27;;;;;;;13.15;8.30;;;;;;;;;;10185951;28;20044;-61
2022/07/18 02:43:20;;;;;;;12.02;7.47;;;;;;;;;;10184148;28;20079;-61
2022/07/18 02:48:14;;;;;;;13.85;9.43;;;;;;;;;;10172264;28;20044;-61
2022/07/18 02:53:09;;;;;;;12.70;11.40;;;;;;;;;;10169533;28;20059;-61
2022/07/18 02:58:03;;;;;;;13.15;11.68;;;;;;;;;;10171186;28;20055;-61
2022/07/18 03:02:58;;;;;;;11.60;10.60;;;;;;;;;;10174879;28;20499;-61
2022/07/18 03:07:52;;;;;;;16.58;12.10;;;;;;;;;;10183905;28;20493;-61
2022/07/18 03:12:45;;;;;;;14.75;12.25;;;;;;;;;;10184538;28;20075;-61
2022/07/18 03:17:39;;;;;;;12.02;10.80;;;;;;;;;;10180413;28;20487;-61
2022/07/18 03:22:33;;;;;;;12.30;11.00;;;;;;;;;;10191113;28;20072;-61
2022/07/18 03:27:26;;;;;;;12.30;11.10;;;;;;;;;;10184623;28;20087;-61
2022/07/18 03:32:20;;;;;;;12.32;11.13;;;;;;;;;;10183972;28;20036;-67
2022/07/18 03:37:14;;;;;;;13.43;11.57;;;;;;;;;;10182332;28;20052;-67
2022/07/18 03:42:08;;;;;;;12.07;10.98;;;;;;;;;;10185639;28;20076;-67
2022/07/18 03:47:02;;;;;;;14.05;12.27;;;;;;;;;;10174630;28;20518;-67
2022/07/18 03:51:55;;;;;;;16.08;11.02;;;;;;;;;;10171303;28;20079;-67
2022/07/18 03:56:50;;;;;;;11.30;10.32;;;;;;;;;;10175731;28;20134;-68
2022/07/18 04:01:44;;;;;;;12.85;10.93;;;;;;;;;;10181337;28;20064;-67
2022/07/18 04:06:38;;;;;;;12.18;11.10;;;;;;;;;;10179599;28;20048;-67
2022/07/18 04:11:32;;;;;;;12.63;11.43;;;;;;;;;;10185795;28;20048;-67
2022/07/18 04:16:26;;;;;;;16.38;12.30;;;;;;;;;;10181556;28;20535;-67
2022/07/18 04:21:20;;;;;;;11.68;10.48;;;;;;;;;;10175826;28;20052;-67
2022/07/18 04:26:13;;;;;;;16.20;11.45;;;;;;;;;;10187908;28;20480;-67
2022/07/18 04:31:07;;;;;;;18.38;11.88;;;;;;;;;;10180088;28;20044;-67
2022/07/18 04:36:02;;;;;;;13.35;11.05;;;;;;;;;;10179677;28;20055;-67
2022/07/18 04:40:56;;;;;;;12.95;10.70;;;;;;;;;;10178200;28;20048;-67
2022/07/18 04:45:49;;;;;;;10.65;9.60;;;;;;;;;;10174333;28;20059;-67
2022/07/18 04:50:44;;;;;;;11.52;10.27;;;;;;;;;;10168659;28;20106;-67
2022/07/18 04:55:38;;;;;;;11.23;10.05;;;;;;;;;;10160240;28;20060;-67
2022/07/18 05:00:32;;;;;;;15.23;12.27;;;;;;;;;;10160842;28;20535;-67
2022/07/18 05:05:27;;;;;;;21.13;11.98;;;;;;;;;;10156494;28;20036;-67
2022/07/18 05:10:28;;;;;;;29.33;12.02;;;;;;;;;;10163351;28;20052;-67
2022/07/18 05:15:24;;;;;;;28.33;11.60;;;;;;;;;;10169746;28;20052;-67
2022/07/18 05:20:21;;;;;;;23.15;13.10;;;;;;;;;;10177906;28;20048;-66
2022/07/18 05:25:15;;;;;;;21.55;12.75;;;;;;;;;;10172570;28;20132;-67
2022/07/18 05:30:10;;;;;;;19.65;11.23;;;;;;;;;;10174278;28;20060;-66
2022/07/18 05:35:06;;;;;;;17.50;9.85;;;;;;;;;;10184583;28;20051;-67
2022/07/18 05:40:00;;;;;;;23.08;12.02;;;;;;;;;;10183826;28;20125;-67
2022/07/18 05:44:54;;;;;;;27.42;17.45;;;;;;;;;;10182561;28;20048;-67
2022/07/18 05:49:47;;;;;;;30.75;20.05;;;;;;;;;;10180645;28;20060;-68
2022/07/18 05:54:40;;;;;;;29.55;19.80;;;;;;;;;;10162830;28;20056;-68
2022/07/18 05:59:37;;;;;;;23.83;15.10;;;;;;;;;;10172260;28;20493;-67
2022/07/18 06:04:33;;;;;;;25.85;18.70;;;;;;;;;;10179057;28;20056;-60
2022/07/18 06:09:37;;;;;;;28.42;19.05;;;;;;;;;;10164800;28;20563;-60
2022/07/18 06:14:31;;;;;;;27.52;17.88;;;;;;;;;;10180316;28;20044;-62
2022/07/18 06:19:26;;;;;;;24.35;17.25;;;;;;;;;;10177323;28;20051;-61
2022/07/18 06:24:19;;;;;;;23.58;13.88;;;;;;;;;;10184990;28;20056;-61
2022/07/18 06:29:14;;;;;;;24.02;14.18;;;;;;;;;;10184054;28;20051;-61
2022/07/18 06:34:08;;;;;;;37.28;15.68;;;;;;;;;;10182189;28;20111;-61
2022/07/18 06:39:08;;;;;;;24.23;12.23;;;;;;;;;;10181501;28;20063;-62
2022/07/18 06:44:02;;;;;;;17.48;12.57;;;;;;;;;;10170674;28;20067;-60
2022/07/18 06:48:58;;;;;;;16.92;12.85;;;;;;;;;;10168537;28;20062;-60
2022/07/18 06:53:55;;;;;;;19.00;12.70;;;;;;;;;;10159221;28;20127;-60
2022/07/18 06:58:49;;;;;;;15.65;11.20;;;;;;;;;;10165821;28;20046;-60
2022/07/18 07:03:44;;;;;;;13.20;10.25;;;;;;;;;;10158268;28;20051;-59
2022/07/18 07:08:39;;;;;;;18.00;8.13;;;;;;;;;;10171063;28;20048;-60
2022/07/18 07:13:33;;;;;;;13.85;7.82;;;;;;;;;;10165080;28;20042;-60
2022/07/18 07:18:27;;;;;;;81.25;11.85;;;;;;;;;;10162489;28;20548;-59
2022/07/18 07:23:21;;;;;;;8.00;6.72;;;;;;;;;;10173235;28;20552;-59
2022/07/18 07:28:14;;;;;;;10.68;6.70;;;;;;;;;;10169479;28;20084;-60
2022/07/18 07:33:09;;;;;;;9.65;6.40;;;;;;;;;;10181774;28;20048;-60
2022/07/18 07:38:03;;;;;;;11.63;7.78;;;;;;;;;;10175500;28;20476;-61
2022/07/18 07:43:10;;;;;;;11.90;6.90;;;;;;;;;;10177905;28;20056;-60
2022/07/18 07:48:04;;;;;;;8.38;6.38;;;;;;;;;;10178546;28;20088;-60
2022/07/18 07:52:59;;;;;;;9.55;5.60;;;;;;;;;;10180041;28;20504;-61
2022/07/18 07:57:52;;;;;;;11.50;5.93;;;;;;;;;;10177822;28;20075;-61
2022/07/18 08:02:54;;;;;;;7.65;5.13;;;;;;;;;;10181088;28;20109;-60
2022/07/18 08:07:52;;;;;;;11.85;5.38;;;;;;;;;;10181585;28;20098;-61
2022/07/18 08:12:46;;;;;;;6.43;4.95;;;;;;;;;;10180093;28;20049;-61
2022/07/18 08:17:40;;;;;;;8.90;4.80;;;;;;;;;;10175940;28;20503;-61
2022/07/18 08:23:11;;;;;;;7.18;4.32;;;;;;;;;;10180190;28;20052;-60
2022/07/18 08:28:06;;;;;;;14.43;5.15;;;;;;;;;;10142794;28;20103;-59
2022/07/18 08:33:00;;;;;;;9.95;4.55;;;;;;;;;;10150800;28;20072;-60
2022/07/18 08:37:56;;;;;;;8.13;4.88;;;;;;;;;;10176877;28;20048;-61
2022/07/18 08:42:56;;;;;;;7.65;4.70;;;;;;;;;;10184546;28;20060;-60
2022/07/18 08:48:12;;;;;;;7.97;4.30;;;;;;;;;;10183517;28;20068;-58
2022/07/18 08:53:07;;;;;;;11.85;4.43;;;;;;;;;;10165526;28;20052;-61
2022/07/18 08:58:00;;;;;;;11.18;4.20;;;;;;;;;;10169739;28;20048;-62
2022/07/18 09:03:14;;;;;;;5.50;4.30;;;;;;;;;;10158352;28;20048;-60
2022/07/18 09:08:16;;;;;;;11.45;3.85;;;;;;;;;;10166815;28;20052;-61
2022/07/18 09:13:10;;;;;;;7.18;3.80;;;;;;;;;;10174586;28;20048;-61
2022/07/18 09:18:05;;;;;;;5.75;3.80;;;;;;;;;;10175546;28;20527;-61
2022/07/18 09:23:18;;;;;;;8.07;3.80;;;;;;;;;;10180503;28;20049;-62
2022/07/18 09:28:12;;;;;;;4.95;3.97;;;;;;;;;;10164874;28;20132;-63
2022/07/18 09:33:10;;;;;;;9.38;3.92;;;;;;;;;;10179228;28;20055;-63
2022/07/18 09:38:08;;;;;;;11.82;3.63;;;;;;;;;;10174668;28;20118;-61
2022/07/18 09:43:05;;;;;;;8.27;4.07;;;;;;;;;;10160411;28;20084;-61
2022/07/18 09:48:04;;;;;;;8.32;3.03;;;;;;;;;;10164824;28;20063;-62
2022/07/18 09:53:25;;;;;;;4.05;3.10;;;;;;;;;;10164918;28;20052;-62
2022/07/18 09:58:31;;;;;;;9.25;3.47;;;;;;;;;;10170068;28;20055;-61
2022/07/18 10:03:26;;;;;;;3.78;2.78;;;;;;;;;;10161510;28;20117;-61
2022/07/18 10:08:27;;;;;;;7.70;3.35;;;;;;;;;;10160945;28;20041;-62
2022/07/18 10:13:22;;;;;;;4.63;2.85;;;;;;;;;;10160196;28;20132;-62
2022/07/18 10:18:19;;;;;;;8.00;2.80;;;;;;;;;;10176667;28;20110;-62
2022/07/18 10:23:22;;;;;;;4.72;2.35;;;;;;;;;;10159335;28;20048;-61
2022/07/18 10:28:16;;;;;;;2.63;2.20;;;;;;;;;;10153459;28;20048;-62
2022/07/18 10:33:43;;;;;;;6.28;3.17;;;;;;;;;;10167535;28;20044;-62
2022/07/18 10:38:38;;;;;;;5.15;2.30;;;;;;;;;;10158715;28;20072;-62
2022/07/18 10:43:33;;;;;;;4.13;2.58;;;;;;;;;;10162421;28;20131;-62
2022/07/18 10:48:32;;;;;;;4.87;2.77;;;;;;;;;;10156636;28;20512;-62
2022/07/18 10:53:54;;;;;;;4.88;3.17;;;;;;;;;;10173413;28;20127;-63
2022/07/18 10:58:49;;;;;;;7.65;2.28;;;;;;;;;;10171947;28;20043;-62
2022/07/18 11:03:42;;;;;;;4.53;2.40;;;;;;;;;;10164272;28;20048;-62
2022/07/18 11:08:36;;;;;;;3.20;2.90;;;;;;;;;;10156501;28;20047;-61
2022/07/18 11:13:43;;;;;;;4.15;2.45;;;;;;;;;;10162340;28;20480;-61
2022/07/18 11:18:39;;;;;;;2.67;2.20;;;;;;;;;;10169627;28;20040;-61
2022/07/18 11:23:43;;;;;;;4.50;2.47;;;;;;;;;;10168392;28;20044;-61
2022/07/18 11:28:37;;;;;;;5.20;2.88;;;;;;;;;;10173951;28;20454;-61
2022/07/18 11:33:33;;;;;;;9.52;3.00;;;;;;;;;;10187373;28;20068;-59
2022/07/18 11:38:27;;;;;;;3.38;2.65;;;;;;;;;;10175533;28;20490;-63
2022/07/18 11:43:23;;;;;;;6.82;3.40;;;;;;;;;;10188025;28;20091;-63
2022/07/18 11:48:23;;;;;;;;;;;;;;;;;;10172205;28;20147;-59
2022/07/18 11:53:17;;;;;;;6.93;2.60;;;;;;;;;;10181406;28;19924;-63
2022/07/18 11:58:12;;;;;;;6.13;3.05;;;;;;;;;;10181543;28;20036;-63
2022/07/18 12:03:27;;;;;;;6.00;3.00;;;;;;;;;;10172702;28;20049;-63
2022/07/18 12:08:32;;;;;;;6.78;3.80;;;;;;;;;;10135228;28;20048;-63
2022/07/18 12:14:06;;;;;;;7.85;3.17;;;;;;;;;;10179702;28;20462;-63
2022/07/18 12:19:07;;;;;;;5.05;3.63;;;;;;;;;;10183495;28;20040;-63
2022/07/18 12:24:17;;;;;;;6.53;3.00;;;;;;;;;;10186835;28;20058;-62
2022/07/18 12:29:11;;;;;;;6.28;3.15;;;;;;;;;;10161339;28;20083;-61
2022/07/18 12:34:15;;;;;;;7.32;3.22;;;;;;;;;;10166995;28;20507;-61
2022/07/18 12:39:09;;;;;;;5.60;3.05;;;;;;;;;;10163148;28;20063;-61
2022/07/18 12:44:03;;;;;;;3.42;3.13;;;;;;;;;;10178382;28;20055;-61
2022/07/18 12:48:56;;;;;;;5.50;3.58;;;;;;;;;;10171285;28;20044;-62
2022/07/18 12:53:50;;;;;;;7.38;3.60;;;;;;;;;;10188743;28;20043;-62
2022/07/18 12:58:44;;;;;;;13.35;4.40;;;;;;;;;;10178822;28;20057;-62
2022/07/18 13:03:40;;;;;;;6.03;3.10;;;;;;;;;;10172291;28;20123;-61
2022/07/18 13:08:34;;;;;;;5.00;3.60;;;;;;;;;;10184304;28;20051;-59
2022/07/18 13:13:28;;;;;;;4.30;3.10;;;;;;;;;;10177814;28;20121;-59
2022/07/18 13:18:22;;;;;;;4.90;2.90;;;;;;;;;;10172698;28;20049;-59
2022/07/18 13:23:18;;;;;;;5.40;2.83;;;;;;;;;;10173798;28;20054;-59
2022/07/18 13:28:13;;;;;;;6.10;3.53;;;;;;;;;;10165503;28;20119;-59
2022/07/18 13:33:07;;;;;;;6.82;3.65;;;;;;;;;;10169016;28;20056;-59
2022/07/18 13:38:01;;;;;;;6.85;2.90;;;;;;;;;;10176819;28;20075;-59
2022/07/18 13:42:54;;;;;;;5.43;3.20;;;;;;;;;;10153812;28;20056;-62
2022/07/18 13:47:48;;;;;;;9.10;3.13;;;;;;;;;;10178378;28;20071;-62
2022/07/18 13:52:43;;;;;;;7.72;3.30;;;;;;;;;;10179370;28;20508;-62
2022/07/18 13:57:38;;;;;;;9.63;3.80;;;;;;;;;;10165379;28;20040;-61
2022/07/18 14:02:33;;;;;;;6.07;3.20;;;;;;;;;;10170369;28;20044;-61
2022/07/18 14:07:26;;;;;;;9.10;3.20;;;;;;;;;;10173884;28;20048;-61
2022/07/18 14:12:20;;;;;;;5.55;3.05;;;;;;;;;;10162177;28;20135;-61
2022/07/18 14:17:13;;;;;;;4.40;3.25;;;;;;;;;;10171088;28;20063;-61
2022/07/18 14:22:09;;;;;;;6.18;3.05;;;;;;;;;;10168577;28;20080;-61
2022/07/18 14:27:05;;;;;;;4.70;2.72;;;;;;;;;;10161735;28;20041;-61
2022/07/18 14:32:01;;;;;;;5.18;2.47;;;;;;;;;;10164913;28;20055;-61
2022/07/18 14:36:56;;;;;;;4.18;2.25;;;;;;;;;;10170750;28;20052;-61
2022/07/18 14:41:50;;;;;;;4.72;2.38;;;;;;;;;;10176864;28;20161;-61
2022/07/18 14:46:44;;;;;;;3.65;2.72;;;;;;;;;;10182064;28;20052;-61
2022/07/18 14:51:38;;;;;;;8.23;2.80;;;;;;;;;;10178991;28;20047;-61
2022/07/18 14:56:33;;;;;;;9.23;2.07;;;;;;;;;;10172422;28;20093;-61
2022/07/18 15:01:26;;;;;;;6.35;2.58;;;;;;;;;;10172693;28;20082;-61
2022/07/18 15:06:20;;;;;;;4.63;2.33;;;;;;;;;;10165199;28;20050;-61
2022/07/18 15:11:13;;;;;;;4.85;2.45;;;;;;;;;;10181975;28;20067;-61
2022/07/18 15:16:08;;;;;;;8.52;3.22;;;;;;;;;;10156189;28;20048;-61
2022/07/18 15:21:03;;;;;;;6.07;2.50;;;;;;;;;;10155777;28;20048;-60
2022/07/18 15:25:58;;;;;;;3.97;3.03;;;;;;;;;;10170501;28;20128;-61
2022/07/18 15:30:52;;;;;;;4.45;2.20;;;;;;;;;;10175271;28;20052;-61
2022/07/18 15:35:46;;;;;;;6.45;2.33;;;;;;;;;;10166850;28;20044;-61
2022/07/18 15:40:39;;;;;;;13.63;3.40;;;;;;;;;;10171412;28;20086;-60
2022/07/18 15:45:33;;;;;;;3.22;2.00;;;;;;;;;;10174206;28;20056;-60
2022/07/18 15:50:27;;;;;;;4.43;3.50;;;;;;;;;;10159968;28;20058;-61
2022/07/18 15:55:20;;;;;;;3.45;2.30;;;;;;;;;;10176770;28;20401;-61
2022/07/18 16:00:22;;;;;;;7.80;2.67;;;;;;;;;;10177636;28;20048;-61
2022/07/18 16:05:15;;;;;;;5.10;2.30;;;;;;;;;;10174256;28;20075;-61
2022/07/18 16:10:10;;;;;;;2.38;2.17;;;;;;;;;;10180469;28;20393;-60
2022/07/18 16:15:05;;;;;;;4.88;2.53;;;;;;;;;;10180434;28;20074;-61
2022/07/18 16:20:01;;;;;;;5.25;2.10;;;;;;;;;;10180276;28;20064;-61
2022/07/18 16:24:54;;;;;;;4.00;2.35;;;;;;;;;;10176531;28;20044;-60
2022/07/18 16:29:48;;;;;;;9.95;2.53;;;;;;;;;;10182991;28;20059;-61
2022/07/18 16:34:49;;;;;;;3.10;2.10;;;;;;;;;;10171331;28;20056;-61
2022/07/18 16:39:44;;;;;;;3.92;2.00;;;;;;;;;;10161988;28;20139;-62
2022/07/18 16:44:39;;;;;;;3.72;2.13;;;;;;;;;;10163882;28;20075;-61
2022/07/18 16:49:34;;;;;;;8.35;2.60;;;;;;;;;;10155631;28;20148;-61
2022/07/18 16:54:29;;;;;;;7.25;2.50;;;;;;;;;;10153337;28;20053;-61
2022/07/18 16:59:23;;;;;;;4.88;2.00;;;;;;;;;;10155774;28;20048;-61
2022/07/18 17:04:17;;;;;;;4.53;2.53;;;;;;;;;;10156364;28;20079;-62
2022/07/18 17:09:12;;;;;;;6.10;2.55;;;;;;;;;;10153680;28;20406;-63
2022/07/18 17:14:06;;;;;;;2.90;2.70;;;;;;;;;;10160399;28;20135;-63
2022/07/18 17:19:02;;;;;;;8.00;3.15;;;;;;;;;;10162293;28;20446;-62
2022/07/18 17:23:56;;;;;;;5.13;2.75;;;;;;;;;;10175299;28;20101;-62
2022/07/18 17:28:49;;;;;;;8.48;3.05;;;;;;;;;;10173871;28;20053;-63
2022/07/18 17:33:44;;;;;;;5.65;2.92;;;;;;;;;;10186752;28;20044;-64
2022/07/18 17:38:39;;;;;;;3.67;2.28;;;;;;;;;;10187229;28;20056;-63
2022/07/18 17:43:34;;;;;;;6.28;2.88;;;;;;;;;;10182523;28;20063;-63
2022/07/18 17:48:28;;;;;;;8.30;2.33;;;;;;;;;;10171642;28;20105;-63
2022/07/18 17:53:21;;;;;;;7.18;2.97;;;;;;;;;;10179961;28;20044;-65
2022/07/18 17:58:15;;;;;;;4.93;2.90;;;;;;;;;;10183496;28;20048;-65
2022/07/18 18:03:09;;;;;;;3.60;2.65;;;;;;;;;;10177516;28;20526;-64
2022/07/18 18:08:04;;;;;;;19.55;3.05;;;;;;;;;;10184450;28;20127;-64
2022/07/18 18:12:59;;;;;;;5.47;2.70;;;;;;;;;;10165185;28;20044;-64
2022/07/18 18:17:54;;;;;;;3.95;2.42;;;;;;;;;;10180140;28;20052;-64
2022/07/18 18:22:48;;;;;;;5.45;2.30;;;;;;;;;;10185310;28;20452;-65
2022/07/18 18:27:44;;;;;;;4.55;2.92;;;;;;;;;;10183113;28;20040;-65
2022/07/18 18:32:41;;;;;;;13.20;3.00;;;;;;;;;;10185969;28;20044;-64
2022/07/18 18:37:34;;;;;;;6.53;2.60;;;;;;;;;;10184867;28;20048;-64
2022/07/18 18:42:29;;;;;;;6.32;2.70;;;;;;;;;;10164481;28;20523;-64
2022/07/18 18:47:22;;;;;;;7.28;2.75;;;;;;;;;;10177820;28;20048;-64
2022/07/18 18:52:19;;;;;;;5.38;2.45;;;;;;;;;;10178965;28;20040;-63
2022/07/18 18:57:13;;;;;;;5.45;2.72;;;;;;;;;;10173489;28;20075;-64
2022/07/18 19:02:07;;;;;;;6.30;2.70;;;;;;;;;;10182512;28;20489;-62
2022/07/18 19:07:02;;;;;;;6.85;2.78;;;;;;;;;;10164536;28;20047;-62
2022/07/18 19:11:55;;;;;;;6.90;2.78;;;;;;;;;;10181764;28;20056;-63
2022/07/18 19:16:49;;;;;;;10.88;2.78;;;;;;;;;;10180605;28;20047;-62
2022/07/18 19:21:43;;;;;;;6.90;3.15;;;;;;;;;;10178628;28;20484;-61
2022/07/18 19:26:37;;;;;;;11.07;2.90;;;;;;;;;;10153964;28;20511;-61
2022/07/18 19:31:30;;;;;;;4.03;2.78;;;;;;;;;;10170991;28;20087;-63
2022/07/18 19:36:31;;;;;;;4.68;2.88;;;;;;;;;;10171060;28;20131;-64
2022/07/18 19:41:26;;;;;;;8.10;3.13;;;;;;;;;;10165096;28;20409;-63
2022/07/18 19:46:20;;;;;;;5.05;2.88;;;;;;;;;;10169112;28;20401;-65
2022/07/18 19:51:14;;;;;;;7.95;3.10;;;;;;;;;;10181975;28;20048;-64
2022/07/18 19:56:09;;;;;;;7.60;2.72;;;;;;;;;;10184353;28;20048;-64
2022/07/18 20:01:02;;;;;;;6.18;2.70;;;;;;;;;;10170155;28;20055;-63
2022/07/18 20:05:56;;;;;;;7.07;2.25;;;;;;;;;;10178010;28;20079;-60
2022/07/18 20:10:49;;;;;;;7.03;3.28;;;;;;;;;;10181818;28;20135;-60
2022/07/18 20:15:44;;;;;;;4.05;3.17;;;;;;;;;;10174412;28;20044;-61
2022/07/18 20:20:38;;;;;;;7.18;2.00;;;;;;;;;;10176301;28;20048;-61
2022/07/18 20:25:33;;;;;;;4.82;2.95;;;;;;;;;;10181315;28;20048;-62
2022/07/18 20:30:27;;;;;;;8.80;2.40;;;;;;;;;;10178489;28;20036;-62
2022/07/18 20:35:20;;;;;;;5.65;2.72;;;;;;;;;;10181148;28;20131;-63
2022/07/18 20:40:16;;;;;;;4.53;2.53;;;;;;;;;;10163769;28;20059;-62
2022/07/18 20:45:11;;;;;;;7.03;2.50;;;;;;;;;;10166044;28;20059;-63
2022/07/18 20:50:06;;;;;;;4.28;2.80;;;;;;;;;;10177687;28;20047;-62
2022/07/18 20:55:00;;;;;;;10.15;2.47;;;;;;;;;;10172116;28;20127;-63
2022/07/18 20:59:57;;;;;;;10.57;2.87;;;;;;;;;;10168004;28;20105;-61
2022/07/18 21:04:51;;;;;;;6.38;2.60;;;;;;;;;;10173272;28;20054;-62
2022/07/18 21:09:45;;;;;;;4.28;2.75;;;;;;;;;;10175896;28;20123;-61
2022/07/18 21:19:52;;;;;;;5.45;2.85;;;;;;;;;;10176887;28;20455;-62
2022/07/18 21:24:49;;;;;;;4.15;2.50;;;;;;;;;;10177383;28;20047;-64
2022/07/18 21:29:42;;;;;;;13.55;3.50;;;;;;;;;;10178650;28;20040;-64
2022/07/18 21:34:37;;;;;;;5.63;3.10;;;;;;;;;;10176133;28;20538;-64
2022/07/18 21:39:31;;;;;;;5.72;2.92;;;;;;;;;;10181903;28;20044;-64
2022/07/18 21:44:25;;;;;;;4.35;2.60;;;;;;;;;;10178992;28;20052;-64
2022/07/18 21:49:19;;;;;;;14.27;3.05;;;;;;;;;;10163961;28;20048;-64
2022/07/18 21:54:13;;;;;;;5.18;2.60;;;;;;;;;;10183127;28;20121;-64
2022/07/18 21:59:08;;;;;;;6.03;2.60;;;;;;;;;;10172622;28;20116;-65
2022/07/18 22:04:02;;;;;;;3.70;2.75;;;;;;;;;;10170691;28;20052;-64
2022/07/18 22:09:00;;;;;;;9.68;2.80;;;;;;;;;;10177966;28;20097;-63
2022/07/18 22:13:54;;;;;;;5.78;2.83;;;;;;;;;;10181423;28;20381;-63
2022/07/18 22:18:49;;;;;;;7.25;2.88;;;;;;;;;;10179069;28;20048;-64
2022/07/18 22:23:43;;;;;;;8.52;2.85;;;;;;;;;;10186079;28;20076;-63
2022/07/18 22:28:37;;;;;;;10.73;3.92;;;;;;;;;;10184242;28;20048;-64
2022/07/18 22:33:30;;;;;;;9.13;3.67;;;;;;;;;;10175622;28;20052;-63
2022/07/18 22:38:24;;;;;;;6.30;3.38;;;;;;;;;;10169664;28;20055;-63
2022/07/18 22:43:18;;;;;;;9.52;3.72;;;;;;;;;;10180067;28;20062;-62
2022/07/18 22:48:11;;;;;;;15.52;4.13;;;;;;;;;;10176761;28;20045;-63
2022/07/18 22:53:05;;;;;;;9.80;5.50;;;;;;;;;;10180809;28;20043;-64
2022/07/18 22:58:02;;;;;;;10.18;5.35;;;;;;;;;;10178844;28;20059;-64
2022/07/18 23:02:55;;;;;;;11.15;5.32;;;;;;;;;;10176336;28;20149;-64
2022/07/18 23:07:56;;;;;;;10.93;4.47;;;;;;;;;;10175053;28;20123;-64
2022/07/18 23:12:50;;;;;;;8.25;4.03;;;;;;;;;;10166577;28;20532;-63
2022/07/18 23:17:44;;;;;;;12.27;4.30;;;;;;;;;;10186738;28;20131;-64
2022/07/18 23:22:38;;;;;;;9.88;4.55;;;;;;;;;;10176198;28;20044;-63
2022/07/18 23:27:32;;;;;;;12.77;3.88;;;;;;;;;;10186439;28;20097;-63
2022/07/18 23:32:26;;;;;;;7.13;3.05;;;;;;;;;;10179808;28;20052;-64
2022/07/18 23:37:20;;;;;;;8.23;4.32;;;;;;;;;;10185871;28;20077;-63
2022/07/18 23:42:14;;;;;;;12.20;5.00;;;;;;;;;;10186347;28;20074;-64
2022/07/18 23:47:08;;;;;;;10.82;4.32;;;;;;;;;;10183166;28;20067;-65
2022/07/18 23:52:03;;;;;;;16.45;4.28;;;;;;;;;;10181207;28;20055;-64
2022/07/18 23:56:57;;;;;;;7.25;4.78;;;;;;;;;;10184409;28;20503;-65
